Saint-Bruno-De-Montarville, Canada
Current Conditions -  °F | °C
As of 9:00 PM on Friday 19 Dec 2014 (Local Time) from CYHU Reporting Station
Clear Clear  
Wind Chill:   Ceiling: Unl
Heat Index: 18°   Visibility: 9mi
Dew Point: 12°   Wind: 8mph
Humidity: 79%   Direction: 250°WSW
Pressure: 30.22"   Gusts: NA
Location:  45.53°N, 73.35°W
Report Text: CYHU 200200Z AUTO 25007KT 9SM CLR M08/M11 A3022 RMK SLP237
Loading
Personal Weather Stations






























Interactive Weather Map New forecast layout! Learn more

10-Day Weather Forecast

Advertisements
Track Severe Weather on mobile